sensor_id;sensor_type;location;lat;lon;timestamp;P1;durP1;ratioP1;P2;durP2;ratioP2
11386;SDS011;5748;53.102;8.456;2023-04-12T00:02:23;2.17;;;1.00;;
11386;SDS011;5748;53.102;8.456;2023-04-12T00:04:51;1.40;;;0.90;;
11386;SDS011;5748;53.102;8.456;2023-04-12T00:07:21;1.33;;;1.13;;
11386;SDS011;5748;53.102;8.456;2023-04-12T00:09:49;2.03;;;0.90;;
11386;SDS011;5748;53.102;8.456;2023-04-12T00:12:17;1.73;;;1.20;;
11386;SDS011;5748;53.102;8.456;2023-04-12T00:14:45;1.80;;;1.30;;
11386;SDS011;5748;53.102;8.456;2023-04-12T00:17:12;1.57;;;1.20;;
11386;SDS011;5748;53.102;8.456;2023-04-12T00:19:40;1.03;;;0.93;;
11386;SDS011;5748;53.102;8.456;2023-04-12T00:22:07;1.87;;;1.10;;
11386;SDS011;5748;53.102;8.456;2023-04-12T00:24:34;1.20;;;1.10;;
11386;SDS011;5748;53.102;8.456;2023-04-12T00:27:04;1.90;;;1.20;;
11386;SDS011;5748;53.102;8.456;2023-04-12T00:29:33;1.40;;;1.07;;
11386;SDS011;5748;53.102;8.456;2023-04-12T00:32:00;1.10;;;1.00;;
11386;SDS011;5748;53.102;8.456;2023-04-12T00:34:29;1.77;;;1.20;;
11386;SDS011;5748;53.102;8.456;2023-04-12T00:36:56;1.43;;;1.00;;
11386;SDS011;5748;53.102;8.456;2023-04-12T00:39:23;2.03;;;1.10;;
11386;SDS011;5748;53.102;8.456;2023-04-12T00:41:51;2.90;;;1.30;;
11386;SDS011;5748;53.102;8.456;2023-04-12T00:44:20;2.10;;;1.10;;
11386;SDS011;5748;53.102;8.456;2023-04-12T00:46:49;2.00;;;1.13;;
11386;SDS011;5748;53.102;8.456;2023-04-12T00:49:16;1.20;;;1.10;;
11386;SDS011;5748;53.102;8.456;2023-04-12T00:51:43;1.67;;;1.17;;
11386;SDS011;5748;53.102;8.456;2023-04-12T00:54:11;2.07;;;1.20;;
11386;SDS011;5748;53.102;8.456;2023-04-12T00:56:44;2.57;;;1.07;;
11386;SDS011;5748;53.102;8.456;2023-04-12T00:59:12;1.23;;;1.00;;
11386;SDS011;5748;53.102;8.456;2023-04-12T01:01:39;1.03;;;0.90;;
11386;SDS011;5748;53.102;8.456;2023-04-12T01:04:07;1.43;;;1.03;;
11386;SDS011;5748;53.102;8.456;2023-04-12T01:06:40;1.17;;;1.03;;
11386;SDS011;5748;53.102;8.456;2023-04-12T01:09:30;1.17;;;1.00;;
11386;SDS011;5748;53.102;8.456;2023-04-12T01:12:07;1.50;;;1.00;;
11386;SDS011;5748;53.102;8.456;2023-04-12T01:14:42;1.00;;;0.80;;
11386;SDS011;5748;53.102;8.456;2023-04-12T01:17:25;1.10;;;1.00;;
11386;SDS011;5748;53.102;8.456;2023-04-12T01:20:06;2.00;;;1.00;;
11386;SDS011;5748;53.102;8.456;2023-04-12T01:22:48;1.10;;;0.80;;
11386;SDS011;5748;53.102;8.456;2023-04-12T01:25:47;0.80;;;0.80;;
11386;SDS011;5748;53.102;8.456;2023-04-12T01:29:07;1.83;;;1.03;;
11386;SDS011;5748;53.102;8.456;2023-04-12T01:31:35;1.33;;;1.10;;
11386;SDS011;5748;53.102;8.456;2023-04-12T01:34:07;1.57;;;1.30;;
11386;SDS011;5748;53.102;8.456;2023-04-12T01:36:37;1.17;;;1.00;;
11386;SDS011;5748;53.102;8.456;2023-04-12T01:39:05;1.63;;;0.97;;
11386;SDS011;5748;53.102;8.456;2023-04-12T01:41:37;1.13;;;1.00;;
11386;SDS011;5748;53.102;8.456;2023-04-12T01:44:13;1.00;;;0.90;;
11386;SDS011;5748;53.102;8.456;2023-04-12T01:46:40;1.07;;;0.90;;
11386;SDS011;5748;53.102;8.456;2023-04-12T01:49:09;0.90;;;0.90;;
11386;SDS011;5748;53.102;8.456;2023-04-12T01:51:38;2.30;;;1.07;;
11386;SDS011;5748;53.102;8.456;2023-04-12T01:54:18;0.90;;;0.90;;
11386;SDS011;5748;53.102;8.456;2023-04-12T01:56:49;1.63;;;0.93;;
11386;SDS011;5748;53.102;8.456;2023-04-12T01:59:25;1.77;;;0.97;;
11386;SDS011;5748;53.102;8.456;2023-04-12T02:01:56;1.43;;;0.90;;
11386;SDS011;5748;53.102;8.456;2023-04-12T02:04:23;1.20;;;0.80;;
11386;SDS011;5748;53.102;8.456;2023-04-12T02:06:51;1.00;;;0.80;;
11386;SDS011;5748;53.102;8.456;2023-04-12T02:09:19;1.53;;;1.07;;
11386;SDS011;5748;53.102;8.456;2023-04-12T02:11:47;3.37;;;1.10;;
11386;SDS011;5748;53.102;8.456;2023-04-12T02:14:15;1.70;;;0.90;;
11386;SDS011;5748;53.102;8.456;2023-04-12T02:16:44;1.30;;;1.10;;
11386;SDS011;5748;53.102;8.456;2023-04-12T02:21:44;1.03;;;0.90;;
11386;SDS011;5748;53.102;8.456;2023-04-12T02:24:12;1.20;;;1.00;;
11386;SDS011;5748;53.102;8.456;2023-04-12T02:26:40;1.47;;;1.07;;
11386;SDS011;5748;53.102;8.456;2023-04-12T02:29:07;1.20;;;1.10;;
11386;SDS011;5748;53.102;8.456;2023-04-12T02:31:39;1.03;;;0.93;;
11386;SDS011;5748;53.102;8.456;2023-04-12T02:34:08;1.80;;;1.10;;
11386;SDS011;5748;53.102;8.456;2023-04-12T02:36:34;1.43;;;0.97;;
11386;SDS011;5748;53.102;8.456;2023-04-12T02:39:01;0.80;;;0.80;;
11386;SDS011;5748;53.102;8.456;2023-04-12T02:41:29;1.53;;;1.00;;
11386;SDS011;5748;53.102;8.456;2023-04-12T02:44:04;1.70;;;1.10;;
11386;SDS011;5748;53.102;8.456;2023-04-12T02:46:31;1.17;;;1.00;;
11386;SDS011;5748;53.102;8.456;2023-04-12T02:48:58;1.40;;;1.00;;
11386;SDS011;5748;53.102;8.456;2023-04-12T02:51:26;1.40;;;1.03;;
11386;SDS011;5748;53.102;8.456;2023-04-12T02:53:53;3.07;;;1.40;;
11386;SDS011;5748;53.102;8.456;2023-04-12T02:56:20;1.20;;;0.97;;
11386;SDS011;5748;53.102;8.456;2023-04-12T02:58:48;1.00;;;0.90;;
11386;SDS011;5748;53.102;8.456;2023-04-12T03:01:17;1.10;;;0.90;;
11386;SDS011;5748;53.102;8.456;2023-04-12T03:03:44;3.30;;;1.07;;
11386;SDS011;5748;53.102;8.456;2023-04-12T03:06:11;1.20;;;1.10;;
11386;SDS011;5748;53.102;8.456;2023-04-12T03:08:40;1.87;;;1.20;;
11386;SDS011;5748;53.102;8.456;2023-04-12T03:11:07;1.53;;;1.17;;
11386;SDS011;5748;53.102;8.456;2023-04-12T03:13:33;1.20;;;1.00;;
11386;SDS011;5748;53.102;8.456;2023-04-12T03:16:04;3.00;;;1.17;;
11386;SDS011;5748;53.102;8.456;2023-04-12T03:21:28;1.23;;;1.00;;
11386;SDS011;5748;53.102;8.456;2023-04-12T03:23:58;0.80;;;0.80;;
11386;SDS011;5748;53.102;8.456;2023-04-12T03:26:25;2.07;;;1.27;;
11386;SDS011;5748;53.102;8.456;2023-04-12T03:28:54;1.30;;;1.00;;
11386;SDS011;5748;53.102;8.456;2023-04-12T03:31:25;2.40;;;1.40;;
11386;SDS011;5748;53.102;8.456;2023-04-12T03:33:53;1.50;;;1.20;;
11386;SDS011;5748;53.102;8.456;2023-04-12T03:36:28;1.80;;;1.10;;
11386;SDS011;5748;53.102;8.456;2023-04-12T03:38:55;1.37;;;1.10;;
11386;SDS011;5748;53.102;8.456;2023-04-12T03:41:23;1.37;;;1.00;;
11386;SDS011;5748;53.102;8.456;2023-04-12T03:43:51;1.50;;;1.00;;
11386;SDS011;5748;53.102;8.456;2023-04-12T03:46:18;1.60;;;1.10;;
11386;SDS011;5748;53.102;8.456;2023-04-12T03:48:45;1.83;;;1.37;;
11386;SDS011;5748;53.102;8.456;2023-04-12T03:51:13;1.30;;;1.00;;
11386;SDS011;5748;53.102;8.456;2023-04-12T03:53:40;1.10;;;1.00;;
11386;SDS011;5748;53.102;8.456;2023-04-12T03:56:07;1.70;;;1.20;;
11386;SDS011;5748;53.102;8.456;2023-04-12T03:58:37;1.10;;;0.90;;
11386;SDS011;5748;53.102;8.456;2023-04-12T04:01:05;1.40;;;1.10;;
11386;SDS011;5748;53.102;8.456;2023-04-12T04:03:33;1.63;;;1.13;;
11386;SDS011;5748;53.102;8.456;2023-04-12T04:06:00;2.40;;;1.20;;
11386;SDS011;5748;53.102;8.456;2023-04-12T04:08:27;2.47;;;1.40;;
11386;SDS011;5748;53.102;8.456;2023-04-12T04:10:56;1.10;;;1.00;;
11386;SDS011;5748;53.102;8.456;2023-04-12T04:13:24;1.53;;;1.13;;
11386;SDS011;5748;53.102;8.456;2023-04-12T04:16:03;1.30;;;1.20;;
11386;SDS011;5748;53.102;8.456;2023-04-12T04:18:33;1.23;;;1.10;;
11386;SDS011;5748;53.102;8.456;2023-04-12T04:21:02;1.30;;;1.10;;
11386;SDS011;5748;53.102;8.456;2023-04-12T04:23:31;1.27;;;1.00;;
11386;SDS011;5748;53.102;8.456;2023-04-12T04:26:02;1.63;;;1.30;;
11386;SDS011;5748;53.102;8.456;2023-04-12T04:28:34;2.07;;;1.20;;
11386;SDS011;5748;53.102;8.456;2023-04-12T04:31:08;1.07;;;0.97;;
11386;SDS011;5748;53.102;8.456;2023-04-12T04:33:35;1.37;;;1.20;;
11386;SDS011;5748;53.102;8.456;2023-04-12T04:36:03;1.47;;;1.30;;
11386;SDS011;5748;53.102;8.456;2023-04-12T04:38:32;1.67;;;1.30;;
11386;SDS011;5748;53.102;8.456;2023-04-12T04:40:59;1.10;;;1.00;;
11386;SDS011;5748;53.102;8.456;2023-04-12T04:43:27;2.17;;;1.10;;
11386;SDS011;5748;53.102;8.456;2023-04-12T04:45:55;1.30;;;1.10;;
11386;SDS011;5748;53.102;8.456;2023-04-12T04:48:24;1.63;;;1.30;;
11386;SDS011;5748;53.102;8.456;2023-04-12T04:50:51;1.90;;;1.20;;
11386;SDS011;5748;53.102;8.456;2023-04-12T04:53:18;1.23;;;1.13;;
11386;SDS011;5748;53.102;8.456;2023-04-12T04:55:47;1.30;;;1.20;;
11386;SDS011;5748;53.102;8.456;2023-04-12T04:58:14;1.97;;;1.30;;
11386;SDS011;5748;53.102;8.456;2023-04-12T05:00:41;1.20;;;1.00;;
11386;SDS011;5748;53.102;8.456;2023-04-12T05:03:10;1.53;;;1.27;;
11386;SDS011;5748;53.102;8.456;2023-04-12T05:05:38;1.43;;;1.33;;
11386;SDS011;5748;53.102;8.456;2023-04-12T05:08:05;1.40;;;1.20;;
11386;SDS011;5748;53.102;8.456;2023-04-12T05:10:32;1.20;;;1.10;;
11386;SDS011;5748;53.102;8.456;2023-04-12T05:12:59;1.97;;;1.30;;
11386;SDS011;5748;53.102;8.456;2023-04-12T05:15:26;2.57;;;1.37;;
11386;SDS011;5748;53.102;8.456;2023-04-12T05:17:55;1.43;;;1.20;;
11386;SDS011;5748;53.102;8.456;2023-04-12T05:20:22;2.07;;;1.30;;
11386;SDS011;5748;53.102;8.456;2023-04-12T05:22:50;1.30;;;1.20;;
11386;SDS011;5748;53.102;8.456;2023-04-12T05:25:18;1.80;;;1.20;;
11386;SDS011;5748;53.102;8.456;2023-04-12T05:27:45;2.10;;;1.30;;
11386;SDS011;5748;53.102;8.456;2023-04-12T05:30:12;1.20;;;1.10;;
11386;SDS011;5748;53.102;8.456;2023-04-12T05:32:39;2.17;;;1.13;;
11386;SDS011;5748;53.102;8.456;2023-04-12T05:35:07;2.47;;;1.30;;
11386;SDS011;5748;53.102;8.456;2023-04-12T05:37:34;1.27;;;0.90;;
11386;SDS011;5748;53.102;8.456;2023-04-12T05:40:03;1.43;;;1.10;;
11386;SDS011;5748;53.102;8.456;2023-04-12T05:42:33;1.93;;;1.17;;
11386;SDS011;5748;53.102;8.456;2023-04-12T05:45:01;1.17;;;1.07;;
11386;SDS011;5748;53.102;8.456;2023-04-12T05:47:28;1.50;;;1.00;;
11386;SDS011;5748;53.102;8.456;2023-04-12T05:49:55;1.27;;;0.93;;
11386;SDS011;5748;53.102;8.456;2023-04-12T05:52:22;1.00;;;0.90;;
11386;SDS011;5748;53.102;8.456;2023-04-12T05:54:51;2.70;;;1.40;;
11386;SDS011;5748;53.102;8.456;2023-04-12T05:57:20;1.93;;;1.00;;
11386;SDS011;5748;53.102;8.456;2023-04-12T05:59:47;1.63;;;1.13;;
11386;SDS011;5748;53.102;8.456;2023-04-12T06:02:16;1.23;;;1.13;;
11386;SDS011;5748;53.102;8.456;2023-04-12T06:04:43;1.37;;;1.10;;
11386;SDS011;5748;53.102;8.456;2023-04-12T06:07:10;2.03;;;1.30;;
11386;SDS011;5748;53.102;8.456;2023-04-12T06:09:37;1.23;;;1.10;;
11386;SDS011;5748;53.102;8.456;2023-04-12T06:12:06;1.20;;;1.10;;
11386;SDS011;5748;53.102;8.456;2023-04-12T06:14:35;1.27;;;1.17;;
11386;SDS011;5748;53.102;8.456;2023-04-12T06:17:02;3.33;;;1.10;;
11386;SDS011;5748;53.102;8.456;2023-04-12T06:19:29;1.40;;;1.10;;
11386;SDS011;5748;53.102;8.456;2023-04-12T06:21:56;1.20;;;1.10;;
11386;SDS011;5748;53.102;8.456;2023-04-12T06:24:24;1.10;;;0.90;;
11386;SDS011;5748;53.102;8.456;2023-04-12T06:26:51;1.83;;;1.17;;
11386;SDS011;5748;53.102;8.456;2023-04-12T06:29:18;2.40;;;1.10;;
11386;SDS011;5748;53.102;8.456;2023-04-12T06:31:46;1.40;;;1.20;;
11386;SDS011;5748;53.102;8.456;2023-04-12T06:34:13;1.17;;;0.93;;
11386;SDS011;5748;53.102;8.456;2023-04-12T06:36:40;1.17;;;1.07;;
11386;SDS011;5748;53.102;8.456;2023-04-12T06:39:10;1.07;;;0.90;;
11386;SDS011;5748;53.102;8.456;2023-04-12T06:41:38;1.77;;;0.90;;
11386;SDS011;5748;53.102;8.456;2023-04-12T06:44:07;1.53;;;1.13;;
11386;SDS011;5748;53.102;8.456;2023-04-12T06:46:34;1.30;;;1.03;;
11386;SDS011;5748;53.102;8.456;2023-04-12T06:49:03;1.13;;;1.00;;
11386;SDS011;5748;53.102;8.456;2023-04-12T06:51:30;1.47;;;1.27;;
11386;SDS011;5748;53.102;8.456;2023-04-12T06:53:58;1.17;;;1.00;;
11386;SDS011;5748;53.102;8.456;2023-04-12T06:56:25;1.67;;;1.10;;
11386;SDS011;5748;53.102;8.456;2023-04-12T06:58:52;1.00;;;0.90;;
11386;SDS011;5748;53.102;8.456;2023-04-12T07:01:19;1.87;;;1.00;;
11386;SDS011;5748;53.102;8.456;2023-04-12T07:03:46;1.83;;;1.03;;
11386;SDS011;5748;53.102;8.456;2023-04-12T07:06:15;1.57;;;1.20;;
11386;SDS011;5748;53.102;8.456;2023-04-12T07:08:41;2.47;;;1.30;;
11386;SDS011;5748;53.102;8.456;2023-04-12T07:11:10;1.63;;;1.20;;
11386;SDS011;5748;53.102;8.456;2023-04-12T07:13:37;2.43;;;1.20;;
11386;SDS011;5748;53.102;8.456;2023-04-12T07:16:04;1.80;;;1.20;;
11386;SDS011;5748;53.102;8.456;2023-04-12T07:18:32;1.10;;;1.00;;
11386;SDS011;5748;53.102;8.456;2023-04-12T07:20:59;1.33;;;1.07;;
11386;SDS011;5748;53.102;8.456;2023-04-12T07:23:27;1.57;;;1.23;;
11386;SDS011;5748;53.102;8.456;2023-04-12T07:25:57;1.73;;;0.97;;
11386;SDS011;5748;53.102;8.456;2023-04-12T07:28:25;2.67;;;1.40;;
11386;SDS011;5748;53.102;8.456;2023-04-12T07:30:53;2.00;;;1.27;;
11386;SDS011;5748;53.102;8.456;2023-04-12T07:33:20;2.07;;;1.30;;
11386;SDS011;5748;53.102;8.456;2023-04-12T07:35:47;1.37;;;0.97;;
11386;SDS011;5748;53.102;8.456;2023-04-12T07:38:14;2.47;;;1.30;;
11386;SDS011;5748;53.102;8.456;2023-04-12T07:40:42;1.57;;;1.03;;
11386;SDS011;5748;53.102;8.456;2023-04-12T07:43:09;2.17;;;1.20;;
11386;SDS011;5748;53.102;8.456;2023-04-12T07:45:36;2.10;;;1.30;;
11386;SDS011;5748;53.102;8.456;2023-04-12T07:48:04;3.00;;;1.20;;
11386;SDS011;5748;53.102;8.456;2023-04-12T07:50:32;1.60;;;1.13;;
11386;SDS011;5748;53.102;8.456;2023-04-12T07:55:52;1.50;;;1.10;;
11386;SDS011;5748;53.102;8.456;2023-04-12T07:58:20;1.20;;;1.10;;
11386;SDS011;5748;53.102;8.456;2023-04-12T08:00:49;1.57;;;1.17;;
11386;SDS011;5748;53.102;8.456;2023-04-12T08:03:16;2.00;;;1.20;;
11386;SDS011;5748;53.102;8.456;2023-04-12T08:05:44;2.10;;;1.20;;
11386;SDS011;5748;53.102;8.456;2023-04-12T08:08:17;2.40;;;1.27;;
11386;SDS011;5748;53.102;8.456;2023-04-12T08:10:44;1.47;;;1.10;;
11386;SDS011;5748;53.102;8.456;2023-04-12T08:13:13;1.43;;;0.90;;
11386;SDS011;5748;53.102;8.456;2023-04-12T08:15:40;1.67;;;1.03;;
11386;SDS011;5748;53.102;8.456;2023-04-12T08:18:07;1.10;;;0.90;;
11386;SDS011;5748;53.102;8.456;2023-04-12T08:20:35;1.70;;;1.07;;
11386;SDS011;5748;53.102;8.456;2023-04-12T08:23:04;1.00;;;0.90;;
11386;SDS011;5748;53.102;8.456;2023-04-12T08:25:31;1.47;;;1.00;;
11386;SDS011;5748;53.102;8.456;2023-04-12T08:27:58;2.23;;;1.10;;
11386;SDS011;5748;53.102;8.456;2023-04-12T08:30:26;1.90;;;1.27;;
11386;SDS011;5748;53.102;8.456;2023-04-12T08:32:54;1.70;;;1.20;;
11386;SDS011;5748;53.102;8.456;2023-04-12T08:35:21;2.70;;;1.30;;
11386;SDS011;5748;53.102;8.456;2023-04-12T08:37:48;1.10;;;0.90;;
11386;SDS011;5748;53.102;8.456;2023-04-12T08:40:15;2.33;;;1.10;;
11386;SDS011;5748;53.102;8.456;2023-04-12T08:42:42;1.60;;;1.07;;
11386;SDS011;5748;53.102;8.456;2023-04-12T08:45:10;1.20;;;0.97;;
11386;SDS011;5748;53.102;8.456;2023-04-12T08:47:40;1.33;;;1.07;;
11386;SDS011;5748;53.102;8.456;2023-04-12T08:50:10;2.77;;;1.30;;
11386;SDS011;5748;53.102;8.456;2023-04-12T08:52:38;1.40;;;1.17;;
11386;SDS011;5748;53.102;8.456;2023-04-12T08:55:07;1.47;;;1.10;;
11386;SDS011;5748;53.102;8.456;2023-04-12T08:57:35;1.57;;;1.10;;
11386;SDS011;5748;53.102;8.456;2023-04-12T09:00:05;2.00;;;1.23;;
11386;SDS011;5748;53.102;8.456;2023-04-12T09:02:34;2.07;;;1.20;;
11386;SDS011;5748;53.102;8.456;2023-04-12T09:05:04;1.00;;;1.00;;
11386;SDS011;5748;53.102;8.456;2023-04-12T09:07:33;1.90;;;1.00;;
11386;SDS011;5748;53.102;8.456;2023-04-12T09:10:00;1.67;;;1.20;;
11386;SDS011;5748;53.102;8.456;2023-04-12T09:12:28;1.07;;;1.00;;
11386;SDS011;5748;53.102;8.456;2023-04-12T09:15:05;1.70;;;1.10;;
11386;SDS011;5748;53.102;8.456;2023-04-12T09:17:36;1.30;;;1.10;;
11386;SDS011;5748;53.102;8.456;2023-04-12T09:23:11;1.00;;;1.00;;
11386;SDS011;5748;53.102;8.456;2023-04-12T09:25:43;1.50;;;1.20;;
11386;SDS011;5748;53.102;8.456;2023-04-12T09:28:19;1.30;;;1.20;;
11386;SDS011;5748;53.102;8.456;2023-04-12T09:30:50;1.40;;;1.20;;
11386;SDS011;5748;53.102;8.456;2023-04-12T09:33:18;1.30;;;1.20;;
11386;SDS011;5748;53.102;8.456;2023-04-12T09:35:48;2.20;;;1.30;;
11386;SDS011;5748;53.102;8.456;2023-04-12T09:38:15;1.27;;;1.10;;
11386;SDS011;5748;53.102;8.456;2023-04-12T09:40:42;1.50;;;1.40;;
11386;SDS011;5748;53.102;8.456;2023-04-12T09:43:09;1.50;;;1.20;;
11386;SDS011;5748;53.102;8.456;2023-04-12T09:45:37;1.33;;;1.20;;
11386;SDS011;5748;53.102;8.456;2023-04-12T09:48:05;1.17;;;1.10;;
11386;SDS011;5748;53.102;8.456;2023-04-12T09:50:33;1.37;;;0.97;;
11386;SDS011;5748;53.102;8.456;2023-04-12T09:53:02;1.23;;;1.10;;
11386;SDS011;5748;53.102;8.456;2023-04-12T09:55:41;1.37;;;1.10;;
11386;SDS011;5748;53.102;8.456;2023-04-12T09:58:08;1.93;;;1.30;;
11386;SDS011;5748;53.102;8.456;2023-04-12T10:00:36;1.60;;;1.50;;
11386;SDS011;5748;53.102;8.456;2023-04-12T10:03:03;4.40;;;4.00;;
11386;SDS011;5748;53.102;8.456;2023-04-12T10:05:31;2.80;;;2.60;;
11386;SDS011;5748;53.102;8.456;2023-04-12T10:07:59;2.27;;;2.07;;
11386;SDS011;5748;53.102;8.456;2023-04-12T10:10:27;2.23;;;1.90;;
11386;SDS011;5748;53.102;8.456;2023-04-12T10:12:55;1.97;;;1.80;;
11386;SDS011;5748;53.102;8.456;2023-04-12T10:15:24;1.70;;;1.60;;
11386;SDS011;5748;53.102;8.456;2023-04-12T10:17:52;2.07;;;1.60;;
11386;SDS011;5748;53.102;8.456;2023-04-12T10:20:21;1.33;;;1.23;;
11386;SDS011;5748;53.102;8.456;2023-04-12T10:22:49;1.20;;;1.10;;
11386;SDS011;5748;53.102;8.456;2023-04-12T10:25:19;2.20;;;1.30;;
11386;SDS011;5748;53.102;8.456;2023-04-12T10:27:49;1.17;;;1.07;;
11386;SDS011;5748;53.102;8.456;2023-04-12T10:30:23;1.47;;;1.30;;
11386;SDS011;5748;53.102;8.456;2023-04-12T10:35:50;1.83;;;1.10;;
11386;SDS011;5748;53.102;8.456;2023-04-12T10:38:24;1.00;;;0.90;;
11386;SDS011;5748;53.102;8.456;2023-04-12T10:41:09;1.00;;;1.00;;
11386;SDS011;5748;53.102;8.456;2023-04-12T10:43:42;1.47;;;1.37;;
11386;SDS011;5748;53.102;8.456;2023-04-12T10:49:19;1.40;;;1.30;;
11386;SDS011;5748;53.102;8.456;2023-04-12T10:54:44;1.53;;;1.10;;
11386;SDS011;5748;53.102;8.456;2023-04-12T11:00:18;1.60;;;1.40;;
11386;SDS011;5748;53.102;8.456;2023-04-12T11:03:06;1.10;;;1.00;;
11386;SDS011;5748;53.102;8.456;2023-04-12T11:08:23;2.03;;;1.23;;
11386;SDS011;5748;53.102;8.456;2023-04-12T11:10:57;1.20;;;1.10;;
11386;SDS011;5748;53.102;8.456;2023-04-12T11:13:30;2.10;;;1.33;;
11386;SDS011;5748;53.102;8.456;2023-04-12T11:16:01;1.30;;;1.20;;
11386;SDS011;5748;53.102;8.456;2023-04-12T11:18:29;1.30;;;1.20;;
11386;SDS011;5748;53.102;8.456;2023-04-12T11:20:59;1.30;;;1.20;;
11386;SDS011;5748;53.102;8.456;2023-04-12T11:23:29;1.10;;;1.00;;
11386;SDS011;5748;53.102;8.456;2023-04-12T11:25:56;1.10;;;1.00;;
11386;SDS011;5748;53.102;8.456;2023-04-12T11:28:24;1.10;;;1.00;;
11386;SDS011;5748;53.102;8.456;2023-04-12T11:30:52;1.00;;;1.00;;
11386;SDS011;5748;53.102;8.456;2023-04-12T11:33:30;0.97;;;0.90;;
11386;SDS011;5748;53.102;8.456;2023-04-12T11:35:58;1.20;;;1.10;;
11386;SDS011;5748;53.102;8.456;2023-04-12T11:38:40;1.20;;;0.90;;
11386;SDS011;5748;53.102;8.456;2023-04-12T11:41:08;0.90;;;0.83;;
11386;SDS011;5748;53.102;8.456;2023-04-12T11:43:35;1.00;;;0.90;;
11386;SDS011;5748;53.102;8.456;2023-04-12T11:46:05;1.00;;;0.90;;
11386;SDS011;5748;53.102;8.456;2023-04-12T11:48:32;1.30;;;1.20;;
11386;SDS011;5748;53.102;8.456;2023-04-12T11:51:16;1.33;;;1.17;;
11386;SDS011;5748;53.102;8.456;2023-04-12T11:53:45;2.50;;;1.10;;
11386;SDS011;5748;53.102;8.456;2023-04-12T11:56:30;1.83;;;1.40;;
11386;SDS011;5748;53.102;8.456;2023-04-12T11:58:57;1.13;;;1.03;;
11386;SDS011;5748;53.102;8.456;2023-04-12T12:01:25;2.20;;;2.00;;
11386;SDS011;5748;53.102;8.456;2023-04-12T12:03:53;2.07;;;1.87;;
11386;SDS011;5748;53.102;8.456;2023-04-12T12:06:21;1.80;;;1.50;;
11386;SDS011;5748;53.102;8.456;2023-04-12T12:08:57;1.50;;;1.20;;
11386;SDS011;5748;53.102;8.456;2023-04-12T12:11:25;1.40;;;1.20;;
11386;SDS011;5748;53.102;8.456;2023-04-12T12:13:53;0.90;;;0.90;;
11386;SDS011;5748;53.102;8.456;2023-04-12T12:16:26;0.87;;;0.87;;
11386;SDS011;5748;53.102;8.456;2023-04-12T12:18:55;0.83;;;0.80;;
11386;SDS011;5748;53.102;8.456;2023-04-12T12:21:22;0.93;;;0.90;;
11386;SDS011;5748;53.102;8.456;2023-04-12T12:23:50;0.87;;;0.87;;
11386;SDS011;5748;53.102;8.456;2023-04-12T12:26:20;0.87;;;0.87;;
11386;SDS011;5748;53.102;8.456;2023-04-12T12:31:22;1.03;;;0.70;;
11386;SDS011;5748;53.102;8.456;2023-04-12T12:33:54;0.90;;;0.87;;
11386;SDS011;5748;53.102;8.456;2023-04-12T12:36:27;1.30;;;1.20;;
11386;SDS011;5748;53.102;8.456;2023-04-12T12:39:01;1.20;;;1.10;;
11386;SDS011;5748;53.102;8.456;2023-04-12T12:41:31;1.80;;;1.10;;
11386;SDS011;5748;53.102;8.456;2023-04-12T12:43:58;1.10;;;1.00;;
11386;SDS011;5748;53.102;8.456;2023-04-12T12:46:25;0.90;;;0.90;;
11386;SDS011;5748;53.102;8.456;2023-04-12T12:48:53;0.97;;;0.90;;
11386;SDS011;5748;53.102;8.456;2023-04-12T12:51:20;0.83;;;0.83;;
11386;SDS011;5748;53.102;8.456;2023-04-12T12:53:47;0.93;;;0.93;;
11386;SDS011;5748;53.102;8.456;2023-04-12T12:56:15;1.23;;;1.00;;
11386;SDS011;5748;53.102;8.456;2023-04-12T12:58:42;0.80;;;0.80;;
11386;SDS011;5748;53.102;8.456;2023-04-12T13:01:09;0.70;;;0.70;;
11386;SDS011;5748;53.102;8.456;2023-04-12T13:03:36;0.80;;;0.80;;
11386;SDS011;5748;53.102;8.456;2023-04-12T13:06:07;1.13;;;1.03;;
11386;SDS011;5748;53.102;8.456;2023-04-12T13:08:34;1.10;;;1.00;;
11386;SDS011;5748;53.102;8.456;2023-04-12T13:11:01;0.90;;;0.87;;
11386;SDS011;5748;53.102;8.456;2023-04-12T13:13:28;1.13;;;1.00;;
11386;SDS011;5748;53.102;8.456;2023-04-12T13:15:55;1.13;;;1.03;;
11386;SDS011;5748;53.102;8.456;2023-04-12T13:18:22;1.10;;;1.00;;
11386;SDS011;5748;53.102;8.456;2023-04-12T13:20:49;1.20;;;1.10;;
11386;SDS011;5748;53.102;8.456;2023-04-12T13:23:17;1.30;;;1.20;;
11386;SDS011;5748;53.102;8.456;2023-04-12T13:25:44;0.90;;;0.90;;
11386;SDS011;5748;53.102;8.456;2023-04-12T13:28:11;1.20;;;1.10;;
11386;SDS011;5748;53.102;8.456;2023-04-12T13:30:40;1.30;;;1.20;;
11386;SDS011;5748;53.102;8.456;2023-04-12T13:33:07;1.07;;;0.97;;
11386;SDS011;5748;53.102;8.456;2023-04-12T13:35:34;0.90;;;0.90;;
11386;SDS011;5748;53.102;8.456;2023-04-12T13:38:01;1.00;;;1.00;;
11386;SDS011;5748;53.102;8.456;2023-04-12T13:40:30;0.90;;;0.90;;
11386;SDS011;5748;53.102;8.456;2023-04-12T13:42:57;0.80;;;0.80;;
11386;SDS011;5748;53.102;8.456;2023-04-12T13:45:23;0.80;;;0.80;;
11386;SDS011;5748;53.102;8.456;2023-04-12T13:47:51;0.80;;;0.80;;
11386;SDS011;5748;53.102;8.456;2023-04-12T13:50:18;0.90;;;0.90;;
11386;SDS011;5748;53.102;8.456;2023-04-12T13:52:45;0.80;;;0.80;;
11386;SDS011;5748;53.102;8.456;2023-04-12T13:55:12;0.80;;;0.80;;
11386;SDS011;5748;53.102;8.456;2023-04-12T13:57:40;1.00;;;1.00;;
11386;SDS011;5748;53.102;8.456;2023-04-12T14:00:08;0.90;;;0.90;;
11386;SDS011;5748;53.102;8.456;2023-04-12T14:02:36;0.80;;;0.80;;
11386;SDS011;5748;53.102;8.456;2023-04-12T14:05:03;1.00;;;0.87;;
11386;SDS011;5748;53.102;8.456;2023-04-12T14:07:32;0.80;;;0.80;;
11386;SDS011;5748;53.102;8.456;2023-04-12T14:09:59;0.80;;;0.80;;
11386;SDS011;5748;53.102;8.456;2023-04-12T14:12:26;0.90;;;0.90;;
11386;SDS011;5748;53.102;8.456;2023-04-12T14:14:54;0.90;;;0.90;;
11386;SDS011;5748;53.102;8.456;2023-04-12T14:17:21;0.90;;;0.90;;
11386;SDS011;5748;53.102;8.456;2023-04-12T14:19:48;0.80;;;0.80;;
11386;SDS011;5748;53.102;8.456;2023-04-12T14:22:15;0.80;;;0.80;;
11386;SDS011;5748;53.102;8.456;2023-04-12T14:24:42;0.80;;;0.80;;
11386;SDS011;5748;53.102;8.456;2023-04-12T14:27:10;0.90;;;0.90;;
11386;SDS011;5748;53.102;8.456;2023-04-12T14:29:37;0.80;;;0.80;;
11386;SDS011;5748;53.102;8.456;2023-04-12T14:32:05;1.00;;;1.00;;
11386;SDS011;5748;53.102;8.456;2023-04-12T14:34:32;0.80;;;0.80;;
11386;SDS011;5748;53.102;8.456;2023-04-12T14:37:01;0.83;;;0.83;;
11386;SDS011;5748;53.102;8.456;2023-04-12T14:39:28;0.90;;;0.90;;
11386;SDS011;5748;53.102;8.456;2023-04-12T14:41:59;0.90;;;0.90;;
11386;SDS011;5748;53.102;8.456;2023-04-12T14:44:26;0.70;;;0.70;;
11386;SDS011;5748;53.102;8.456;2023-04-12T14:46:53;0.90;;;0.90;;
11386;SDS011;5748;53.102;8.456;2023-04-12T14:49:22;0.70;;;0.70;;
11386;SDS011;5748;53.102;8.456;2023-04-12T14:51:49;1.00;;;1.00;;
11386;SDS011;5748;53.102;8.456;2023-04-12T14:54:16;0.70;;;0.70;;
11386;SDS011;5748;53.102;8.456;2023-04-12T14:56:50;0.90;;;0.90;;
11386;SDS011;5748;53.102;8.456;2023-04-12T14:59:17;0.83;;;0.83;;
11386;SDS011;5748;53.102;8.456;2023-04-12T15:01:44;0.80;;;0.80;;
11386;SDS011;5748;53.102;8.456;2023-04-12T15:04:11;0.90;;;0.90;;
11386;SDS011;5748;53.102;8.456;2023-04-12T15:06:39;1.10;;;1.00;;
11386;SDS011;5748;53.102;8.456;2023-04-12T15:09:08;0.83;;;0.83;;
11386;SDS011;5748;53.102;8.456;2023-04-12T15:11:36;0.90;;;0.90;;
11386;SDS011;5748;53.102;8.456;2023-04-12T15:14:03;0.70;;;0.70;;
11386;SDS011;5748;53.102;8.456;2023-04-12T15:16:31;0.80;;;0.80;;
11386;SDS011;5748;53.102;8.456;2023-04-12T15:18:59;0.80;;;0.80;;
11386;SDS011;5748;53.102;8.456;2023-04-12T15:21:27;0.93;;;0.70;;
11386;SDS011;5748;53.102;8.456;2023-04-12T15:23:55;0.87;;;0.87;;
11386;SDS011;5748;53.102;8.456;2023-04-12T15:26:28;0.87;;;0.80;;
11386;SDS011;5748;53.102;8.456;2023-04-12T15:28:55;0.90;;;0.90;;
11386;SDS011;5748;53.102;8.456;2023-04-12T15:31:23;0.70;;;0.70;;
11386;SDS011;5748;53.102;8.456;2023-04-12T15:33:57;0.80;;;0.80;;
11386;SDS011;5748;53.102;8.456;2023-04-12T15:36:25;0.80;;;0.80;;
11386;SDS011;5748;53.102;8.456;2023-04-12T15:38:59;0.63;;;0.63;;
11386;SDS011;5748;53.102;8.456;2023-04-12T15:41:41;0.80;;;0.80;;